CheckWX is a tool to help pilots better visualize weather data.  It is not intended as a substitute for an official pre-flight weather briefing.

09:36:21 UTC

KCVG TAF
Cincinnati / Northern Kentucky International Airport
Covington, Kentucky, USA
KCVG 050540Z 0506/0612 05004KT P6SM SCT250 FM051500 08005KT P6SM SCT060 FM060100 11003KT P6SM SCT250

Jul-5@
06:00 UTC

Jul-5 @ 06:00 UTC

Jul-5@
15:00 UTC

Jul-5 @ 15:00 UTC

TAF KCVG 050540Z 0506/0612 05004KT P6SM SCT250

Expired

Wind
  • 050° at 4 KTS
Cloud Levels
  • Scattered at 25,000' AGL

Jul-5@
15:00 UTC

Jul-5 @ 15:00 UTC

Jul-6@
01:00 UTC

Jul-6 @ 01:00 UTC

FM051500 08005KT P6SM SCT060

Expired

Wind
  • 080° at 5 KTS
Cloud Levels
  • Scattered at 6,000' AGL

Jul-6@
01:00 UTC

Jul-6 @ 01:00 UTC

Jul-6@
12:00 UTC

Jul-6 @ 12:00 UTC

FM060100 11003KT P6SM SCT250

From

From Standard forecast or significant change

Wind
  • 110° at 3 KTS
Cloud Levels
  • Scattered at 25,000' AGL